Crapo, Maryland
Current Conditions -  °F | °C
As of 7:52 AM on Saturday 25 Oct 2014 (Local Time) from KNHK Reporting Station
Clear Clear  
Wind Chill: 42°   Ceiling: Unl
Heat Index: 45°   Visibility: 10mi
Dew Point: 39°   Wind: 6mph
Humidity: 80%   Direction: 260°W
Pressure: 29.96"   Gusts: NA
Location:  38.32°N, 76.13°W
Report Text: KNHK 251152Z 26005KT 10SM CLR 07/04 A2996 RMK AO2 SLP147 T00720039 10117 20050 53006 $
Loading
Personal Weather Stations






























Interactive Weather Map
Tropical Storm Tracking
New forecast layout! Learn more

10-Day Weather Forecast

Advertisements
Track Severe Weather on mobile